Time;durP1;ratioP1;P1;durP2;ratioP2;P2;SDS_P1;SDS_P2;PMS_P1;PMS_P2;Temp;Humidity;BMP_temperature;BMP_pressure;BME280_temperature;BME280_humidity;BME280_pressure;Samples;Min_cycle;Max_cycle;Signal;HPM_P1;HPM_P2
2021/03/20 00:01:24;;;;;;;20.37;7.40;;;6.60;99.90;;;;;;5069352;28;20719;-82
2021/03/20 00:03:51;;;;;;;17.43;7.83;;;6.40;99.90;;;;;;5082999;28;20238;-82
2021/03/20 00:06:20;;;;;;;18.37;7.90;;;6.40;99.90;;;;;;5069190;28;20190;-83
2021/03/20 00:08:48;;;;;;;15.10;7.77;;;6.20;99.90;;;;;;5068486;28;20249;-82
2021/03/20 00:11:15;;;;;;;17.57;7.90;;;6.10;99.90;;;;;;5086174;28;20178;-82
2021/03/20 00:13:42;;;;;;;20.33;8.63;;;5.90;99.90;;;;;;5083343;28;20179;-82
2021/03/20 00:16:09;;;;;;;17.20;8.50;;;5.90;99.90;;;;;;5085894;28;20684;-82
2021/03/20 00:18:34;;;;;;;17.00;8.20;;;6.10;99.90;;;;;;5083146;28;20665;-81
2021/03/20 00:21:01;;;;;;;17.20;8.50;;;6.20;99.90;;;;;;5072148;28;20199;-82
2021/03/20 00:23:26;;;;;;;15.77;8.50;;;6.30;99.90;;;;;;5088702;28;20207;-82
2021/03/20 00:25:52;;;;;;;16.57;9.33;;;6.40;99.90;;;;;;5087411;28;20231;-83
2021/03/20 00:28:21;;;;;;;15.87;8.80;;;6.40;99.90;;;;;;5085571;28;20176;-82
2021/03/20 00:30:56;;;;;;;16.83;9.50;;;6.50;99.90;;;;;;5103092;28;20189;-82
2021/03/20 00:33:22;;;;;;;16.80;9.13;;;6.60;99.90;;;;;;5089404;28;20226;-82
2021/03/20 00:35:48;;;;;;;20.37;9.80;;;6.70;99.90;;;;;;5089503;28;20192;-82
2021/03/20 00:38:15;;;;;;;16.63;9.53;;;6.70;99.90;;;;;;5093031;28;20541;-82
2021/03/20 00:40:41;;;;;;;15.80;9.40;;;6.70;99.90;;;;;;5090660;28;20183;-82
2021/03/20 00:43:07;;;;;;;17.10;9.50;;;6.70;99.90;;;;;;5093904;28;20737;-82
2021/03/20 00:45:33;;;;;;;16.60;9.47;;;6.80;99.90;;;;;;5086557;28;20205;-82
2021/03/20 00:48:14;;;;;;;20.37;9.60;;;6.80;99.90;;;;;;5089429;28;20180;-83
2021/03/20 00:50:40;;;;;;;20.27;9.20;;;6.90;99.90;;;;;;5088942;28;20179;-82
2021/03/20 00:53:11;;;;;;;20.43;9.53;;;7.00;99.90;;;;;;5086616;28;20915;-82
2021/03/20 00:55:37;;;;;;;18.50;9.77;;;6.90;99.90;;;;;;5084236;28;20193;-82
2021/03/20 00:58:24;;;;;;;21.07;9.90;;;6.90;99.90;;;;;;5073615;28;20262;-82
2021/03/20 01:01:12;;;;;;;16.47;10.00;;;6.80;99.90;;;;;;5086314;28;20179;-82
2021/03/20 01:03:38;;;;;;;17.67;10.07;;;6.80;99.90;;;;;;5086333;28;20712;-82
2021/03/20 01:06:06;;;;;;;18.80;10.27;;;6.80;99.90;;;;;;5074592;28;20178;-82
2021/03/20 01:08:31;;;;;;;18.73;10.03;;;6.90;99.90;;;;;;5089159;28;20216;-82
2021/03/20 01:10:57;;;;;;;18.10;10.77;;;6.90;99.90;;;;;;5086833;28;20183;-82
2021/03/20 01:13:23;;;;;;;23.37;10.47;;;7.00;99.90;;;;;;5085718;28;20627;-82
2021/03/20 01:15:49;;;;;;;26.73;11.00;;;7.00;99.90;;;;;;5073769;28;20277;-82
2021/03/20 01:18:15;;;;;;;22.47;11.87;;;7.00;99.90;;;;;;5089937;28;20258;-82
2021/03/20 01:20:42;;;;;;;22.37;11.20;;;7.00;99.90;;;;;;5086199;28;20198;-82
2021/03/20 01:23:08;;;;;;;19.67;11.53;;;6.90;99.90;;;;;;5073270;28;20215;-82
2021/03/20 01:25:34;;;;;;;20.30;11.67;;;6.80;99.90;;;;;;5087994;28;20231;-82
2021/03/20 01:27:59;;;;;;;22.37;11.10;;;6.80;99.90;;;;;;5088752;28;20233;-83
2021/03/20 01:30:36;;;;;;;20.30;11.87;;;6.90;99.90;;;;;;5072249;28;20183;-82
2021/03/20 01:33:03;;;;;;;24.63;12.67;;;7.00;99.90;;;;;;5069837;28;20250;-82
2021/03/20 01:35:29;;;;;;;22.27;11.67;;;7.20;99.90;;;;;;5088066;28;20232;-82
2021/03/20 01:37:55;;;;;;;23.73;12.47;;;7.20;99.90;;;;;;5083782;28;20642;-82
2021/03/20 01:40:27;;;;;;;25.33;12.63;;;7.20;99.90;;;;;;5090348;28;20187;-82
2021/03/20 01:42:53;;;;;;;24.80;11.83;;;7.10;99.90;;;;;;5083813;28;20308;-82
2021/03/20 01:45:22;;;;;;;22.47;12.40;;;7.00;99.90;;;;;;5090806;28;20270;-82
2021/03/20 01:48:12;;;;;;;22.33;12.33;;;7.00;99.90;;;;;;5087090;28;20245;-82
2021/03/20 01:50:47;;;;;;;20.77;11.87;;;7.00;99.90;;;;;;5083559;28;20182;-82
2021/03/20 01:53:28;;;;;;;20.87;11.77;;;6.60;99.90;;;;;;5071231;28;20183;-82
2021/03/20 01:55:55;;;;;;;21.40;11.70;;;6.20;99.90;;;;;;5081995;28;20194;-82
2021/03/20 01:58:20;;;;;;;27.43;12.23;;;5.90;99.90;;;;;;5082250;28;20194;-82
2021/03/20 02:00:47;;;;;;;20.53;12.40;;;5.80;99.90;;;;;;5091099;28;20298;-81
2021/03/20 02:03:16;;;;;;;21.23;12.47;;;5.80;99.90;;;;;;5084566;28;20215;-82
2021/03/20 02:05:42;;;;;;;28.37;13.30;;;5.60;99.90;;;;;;5087238;28;20182;-82
2021/03/20 02:08:11;;;;;;;26.60;13.23;;;5.50;99.90;;;;;;5063023;28;20179;-82
2021/03/20 02:10:40;;;;;;;24.27;13.23;;;5.50;99.90;;;;;;5081899;28;20217;-82
2021/03/20 02:13:28;;;;;;;27.20;14.00;;;5.40;99.90;;;;;;5082103;28;20197;-82
2021/03/20 02:16:04;;;;;;;25.00;13.13;;;5.30;99.90;;;;;;5083598;28;20596;-83
2021/03/20 02:18:29;;;;;;;25.20;13.53;;;5.20;99.90;;;;;;5084732;28;20552;-81
2021/03/20 02:21:21;;;;;;;26.47;14.13;;;5.20;99.90;;;;;;5084802;28;20183;-82
2021/03/20 02:24:12;;;;;;;26.13;13.07;;;5.10;99.90;;;;;;5084381;28;20679;-81
2021/03/20 02:26:59;;;;;;;25.53;13.77;;;4.90;99.90;;;;;;5081731;28;20189;-82
2021/03/20 02:29:47;;;;;;;25.70;13.90;;;5.00;99.90;;;;;;5084915;28;20582;-81
2021/03/20 02:32:27;;;;;;;27.63;13.40;;;5.00;99.90;;;;;;5084280;28;20202;-81
2021/03/20 02:35:18;;;;;;;25.00;13.27;;;4.90;99.90;;;;;;5085353;28;20181;-82
2021/03/20 02:37:47;;;;;;;33.13;13.23;;;4.90;99.90;;;;;;5089597;28;20187;-82
2021/03/20 02:40:26;;;;;;;24.53;12.70;;;4.70;99.90;;;;;;5087828;28;20216;-83
2021/03/20 02:43:04;;;;;;;22.43;13.03;;;4.40;99.90;;;;;;5086437;28;20191;-82
2021/03/20 02:45:39;;;;;;;30.60;13.13;;;4.40;99.90;;;;;;5088261;28;20192;-81
2021/03/20 02:48:13;;;;;;;24.13;13.10;;;4.40;99.90;;;;;;5084494;28;20185;-82
2021/03/20 02:50:45;;;;;;;26.83;12.23;;;4.50;99.90;;;;;;5083997;28;20177;-82
2021/03/20 02:53:38;;;;;;;29.43;12.83;;;4.60;99.90;;;;;;5085786;28;20183;-83
2021/03/20 02:56:08;;;;;;;23.37;12.67;;;4.60;99.90;;;;;;5083954;28;20193;-83
2021/03/20 02:58:51;;;;;;;24.37;13.53;;;4.70;99.90;;;;;;5082981;28;20183;-82
2021/03/20 03:01:20;;;;;;;26.17;14.10;;;4.80;99.90;;;;;;5068585;28;20957;-82
2021/03/20 03:03:48;;;;;;;25.73;13.57;;;4.90;99.90;;;;;;5084801;28;20218;-82
2021/03/20 03:06:27;;;;;;;28.17;13.73;;;4.90;99.90;;;;;;5081285;28;20664;-82
2021/03/20 03:09:00;;;;;;;25.17;14.10;;;5.00;99.90;;;;;;5081632;28;20204;-82
2021/03/20 03:11:36;;;;;;;27.47;14.07;;;5.10;99.90;;;;;;5068141;28;20219;-82
2021/03/20 03:14:16;;;;;;;27.30;14.97;;;5.10;99.90;;;;;;5074793;28;20667;-82
2021/03/20 03:16:52;;;;;;;26.60;14.27;;;5.20;99.90;;;;;;5062966;28;20187;-83
2021/03/20 03:19:25;;;;;;;25.93;14.47;;;5.20;99.90;;;;;;5083055;28;20248;-82
2021/03/20 03:21:55;;;;;;;23.60;13.57;;;5.00;99.90;;;;;;5071092;28;20183;-82
2021/03/20 03:24:24;;;;;;;24.50;15.37;;;5.00;99.90;;;;;;5066628;28;20611;-81
2021/03/20 03:26:55;;;;;;;23.03;14.43;;;5.00;99.90;;;;;;5068360;28;20231;-82
2021/03/20 03:29:25;;;;;;;26.00;15.27;;;4.90;99.90;;;;;;5082540;28;20184;-81
2021/03/20 03:32:00;;;;;;;31.30;16.27;;;5.10;99.90;;;;;;5101103;28;20178;-81
2021/03/20 03:34:58;;;;;;;27.27;15.43;;;5.10;99.90;;;;;;5088204;28;20271;-82
2021/03/20 03:37:39;;;;;;;27.07;15.33;;;5.00;99.90;;;;;;5084763;28;20211;-82
2021/03/20 03:40:20;;;;;;;29.70;16.30;;;4.80;99.90;;;;;;5082688;28;20210;-81
2021/03/20 03:42:50;;;;;;;28.63;16.23;;;4.80;99.90;;;;;;5085247;28;20209;-81
2021/03/20 03:45:18;;;;;;;27.77;15.63;;;4.80;99.90;;;;;;5063051;28;20177;-81
2021/03/20 03:47:45;;;;;;;28.60;16.70;;;4.80;99.90;;;;;;5086558;28;20210;-81
2021/03/20 03:50:25;;;;;;;30.30;16.43;;;4.70;99.90;;;;;;5072978;28;20179;-81
2021/03/20 03:52:51;;;;;;;26.43;15.83;;;4.70;99.90;;;;;;5087437;28;20184;-82
2021/03/20 03:55:16;;;;;;;27.47;16.33;;;4.50;99.90;;;;;;5077982;28;20558;-82
2021/03/20 03:58:03;;;;;;;30.77;16.50;;;4.50;99.90;;;;;;5084146;28;20185;-82
2021/03/20 04:00:44;;;;;;;29.23;16.53;;;4.60;99.90;;;;;;5082660;28;20201;-82
2021/03/20 04:03:25;;;;;;;32.00;16.27;;;4.60;99.90;;;;;;5087768;28;20601;-83
2021/03/20 04:06:19;;;;;;;27.50;16.50;;;4.60;99.90;;;;;;5089153;28;21007;-82
2021/03/20 04:09:00;;;;;;;31.40;17.33;;;4.70;99.90;;;;;;5091537;28;20175;-82
2021/03/20 04:11:38;;;;;;;31.07;17.17;;;4.70;99.90;;;;;;5089803;28;20587;-82
2021/03/20 04:14:15;;;;;;;32.40;17.93;;;4.70;99.90;;;;;;5089794;28;20767;-82
2021/03/20 04:16:53;;;;;;;30.03;16.70;;;4.70;99.90;;;;;;5088690;28;20651;-82
2021/03/20 04:19:52;;;;;;;29.97;16.90;;;4.50;99.90;;;;;;5091223;28;20196;-83
2021/03/20 04:22:44;;;;;;;28.97;16.57;;;4.40;99.90;;;;;;5070854;28;20192;-83
2021/03/20 04:25:24;;;;;;;33.20;17.53;;;4.20;99.90;;;;;;5084928;28;20191;-83
2021/03/20 04:28:06;;;;;;;31.13;17.67;;;4.20;99.90;;;;;;5072690;28;20294;-83
2021/03/20 04:30:34;;;;;;;34.97;20.00;;;4.30;99.90;;;;;;5091551;28;20181;-83
2021/03/20 04:33:32;;;;;;;32.57;17.50;;;4.40;99.90;;;;;;5088737;28;20236;-83
2021/03/20 04:36:02;;;;;;;28.60;17.30;;;4.40;99.90;;;;;;5072330;28;20642;-83
2021/03/20 04:38:28;;;;;;;31.97;17.43;;;4.20;99.90;;;;;;5089317;28;20259;-83
2021/03/20 04:41:04;;;;;;;33.80;19.13;;;4.00;99.90;;;;;;5091064;28;20215;-83
2021/03/20 04:43:31;;;;;;;30.67;17.70;;;4.00;99.90;;;;;;5088285;28;20196;-83
2021/03/20 04:46:04;;;;;;;30.13;18.43;;;4.10;99.90;;;;;;5081967;28;20175;-82
2021/03/20 04:48:36;;;;;;;33.77;18.47;;;4.20;99.90;;;;;;5087376;28;20227;-83
2021/03/20 04:51:10;;;;;;;29.97;18.50;;;4.30;99.90;;;;;;5092391;28;20275;-83
2021/03/20 04:53:36;;;;;;;33.43;18.20;;;4.30;99.90;;;;;;5073613;28;20286;-83
2021/03/20 04:56:05;;;;;;;33.87;18.37;;;4.30;99.90;;;;;;5084280;28;20184;-83
2021/03/20 04:58:59;;;;;;;29.83;18.20;;;4.40;99.90;;;;;;5074623;28;20199;-82
2021/03/20 05:01:35;;;;;;;34.20;19.77;;;4.40;99.90;;;;;;5077511;28;20651;-82
2021/03/20 05:04:06;;;;;;;32.13;18.27;;;4.40;99.90;;;;;;5070728;28;20200;-83
2021/03/20 05:06:34;;;;;;;40.90;21.13;;;4.50;99.90;;;;;;5078158;28;20178;-83
2021/03/20 05:09:05;;;;;;;39.05;25.40;;;4.60;99.90;;;;;;5088969;28;20486;-83
2021/03/20 05:11:50;;;;;;;34.00;21.00;;;4.30;99.90;;;;;;5087809;28;20254;-83
2021/03/20 05:14:20;;;;;;;36.87;19.70;;;4.40;99.90;;;;;;5087353;28;20203;-83
2021/03/20 05:16:52;;;;;;;29.83;18.43;;;4.30;99.90;;;;;;5078635;28;20233;-84
2021/03/20 05:19:20;;;;;;;28.13;16.67;;;4.30;99.90;;;;;;5092704;28;20187;-83
2021/03/20 05:21:50;;;;;;;29.17;17.57;;;4.30;99.90;;;;;;5088279;28;20180;-84
2021/03/20 05:24:24;;;;;;;28.73;17.57;;;4.20;99.90;;;;;;5087478;28;20205;-83
2021/03/20 05:26:50;;;;;;;29.83;17.00;;;4.10;99.90;;;;;;5079942;28;20190;-82
2021/03/20 05:29:16;;;;;;;29.90;17.57;;;4.10;99.90;;;;;;5070821;28;20185;-81
2021/03/20 05:31:42;;;;;;;29.27;17.27;;;4.20;99.90;;;;;;5089715;28;20264;-82
2021/03/20 05:34:30;;;;;;;28.90;17.80;;;4.20;99.90;;;;;;5088069;28;20249;-82
2021/03/20 05:36:56;;;;;;;33.70;17.73;;;4.10;99.90;;;;;;5078540;28;20553;-82
2021/03/20 05:39:23;;;;;;;33.47;18.40;;;4.10;99.90;;;;;;5082651;28;20192;-84
2021/03/20 05:41:58;;;;;;;38.27;19.17;;;4.10;99.90;;;;;;5083327;28;20212;-84
2021/03/20 05:45:01;;;;;;;33.33;18.50;;;4.00;99.90;;;;;;5081694;28;20211;-84
2021/03/20 05:47:36;;;;;;;33.77;19.40;;;3.90;99.90;;;;;;5091122;28;20172;-83
2021/03/20 05:50:14;;;;;;;34.90;20.00;;;3.90;99.90;;;;;;5087986;28;20178;-83
2021/03/20 05:53:11;;;;;;;42.43;20.57;;;3.80;99.90;;;;;;5071681;28;20643;-83
2021/03/20 05:55:39;;;;;;;43.33;20.40;;;3.90;99.90;;;;;;5085486;28;20652;-83
2021/03/20 05:58:39;;;;;;;37.37;21.03;;;3.70;99.90;;;;;;5084963;28;20179;-84
2021/03/20 06:01:37;;;;;;;38.47;20.73;;;3.70;99.90;;;;;;5072743;28;20183;-84
2021/03/20 06:04:33;;;;;;;34.77;20.27;;;3.70;99.90;;;;;;5084662;28;20298;-84
2021/03/20 06:07:18;;;;;;;38.47;21.40;;;3.70;99.90;;;;;;5073411;28;20208;-84
2021/03/20 06:09:56;;;;;;;39.30;20.80;;;3.90;99.90;;;;;;5087182;28;20233;-84
2021/03/20 06:12:36;;;;;;;38.30;20.67;;;4.10;99.90;;;;;;5083742;28;20200;-83
2021/03/20 06:15:12;;;;;;;34.50;20.43;;;4.20;99.90;;;;;;5089599;28;20189;-83
2021/03/20 06:17:52;;;;;;;38.50;22.20;;;4.30;99.90;;;;;;5089126;28;20180;-85
2021/03/20 06:20:21;;;;;;;36.67;21.03;;;4.40;99.90;;;;;;5081462;28;20196;-85
2021/03/20 06:23:24;;;;;;;37.93;21.87;;;4.40;99.90;;;;;;5084663;28;20301;-85
2021/03/20 06:26:14;;;;;;;40.47;21.33;;;4.40;99.90;;;;;;5079147;28;20201;-83
2021/03/20 06:28:51;;;;;;;39.23;21.43;;;4.50;99.90;;;;;;5081291;28;20244;-84
2021/03/20 06:31:21;;;;;;;41.53;21.67;;;4.60;99.90;;;;;;5084644;28;20588;-84
2021/03/20 06:34:26;;;;;;;35.40;19.27;;;4.70;99.90;;;;;;5089960;28;20243;-85
2021/03/20 06:37:03;;;;;;;38.73;20.00;;;4.90;99.90;;;;;;5088717;28;20205;-85
2021/03/20 06:39:39;;;;;;;31.47;18.37;;;5.00;99.90;;;;;;5090082;28;20233;-84
2021/03/20 06:42:18;;;;;;;31.80;19.17;;;5.10;99.90;;;;;;5083082;28;20224;-84
2021/03/20 06:44:52;;;;;;;30.97;18.23;;;5.30;99.90;;;;;;5081524;28;20186;-85
2021/03/20 06:47:20;;;;;;;28.73;17.67;;;5.50;99.90;;;;;;5085903;28;20278;-82
2021/03/20 06:49:58;;;;;;;30.90;17.53;;;5.70;99.90;;;;;;5082149;28;20613;-78
2021/03/20 06:52:25;;;;;;;28.37;16.87;;;5.90;99.90;;;;;;5084741;28;20205;-79
2021/03/20 06:55:08;;;;;;;28.17;17.17;;;6.10;99.90;;;;;;5070057;28;20664;-79
2021/03/20 06:57:34;;;;;;;27.40;17.00;;;6.30;99.90;;;;;;5083556;28;20654;-79
2021/03/20 07:00:28;;;;;;;30.77;17.23;;;6.40;99.90;;;;;;5068820;28;20187;-79
2021/03/20 07:03:12;;;;;;;32.13;16.47;;;6.50;99.90;;;;;;5081022;28;20202;-79
2021/03/20 07:05:51;;;;;;;34.40;16.10;;;6.70;99.90;;;;;;5080060;28;20184;-80
2021/03/20 07:08:23;;;;;;;32.07;17.50;;;6.90;99.90;;;;;;5083424;28;20175;-80
2021/03/20 07:10:52;;;;;;;28.97;15.87;;;7.10;99.90;;;;;;5079597;28;20266;-79
2021/03/20 07:13:18;;;;;;;31.80;16.50;;;7.30;99.90;;;;;;5083371;28;20178;-78
2021/03/20 07:15:44;;;;;;;27.07;15.87;;;7.40;99.90;;;;;;5089186;28;20266;-79
2021/03/20 07:18:43;;;;;;;28.63;17.10;;;7.60;99.90;;;;;;5083803;28;20187;-78
2021/03/20 07:21:21;;;;;;;24.83;16.73;;;8.00;99.90;;;;;;5081993;28;20573;-78
2021/03/20 07:24:00;;;;;;;24.27;15.87;;;9.20;99.90;;;;;;5083090;28;20230;-79
2021/03/20 07:26:26;;;;;;;27.63;16.00;;;10.70;99.90;;;;;;5081853;28;20705;-80
2021/03/20 07:28:58;;;;;;;23.07;15.37;;;12.00;99.90;;;;;;5083420;28;20187;-78
2021/03/20 07:31:24;;;;;;;23.63;16.17;;;12.60;99.90;;;;;;5085657;28;20189;-78
2021/03/20 07:33:53;;;;;;;25.93;17.83;;;12.40;99.90;;;;;;5083234;28;20226;-78
2021/03/20 07:36:33;;;;;;;26.23;17.20;;;12.30;99.90;;;;;;5067617;28;20190;-78
2021/03/20 07:39:19;;;;;;;27.80;18.23;;;12.00;99.90;;;;;;5081609;28;20701;-79
2021/03/20 07:41:47;;;;;;;27.40;17.90;;;11.90;99.90;;;;;;5072728;28;20182;-79
2021/03/20 07:44:12;;;;;;;28.30;18.87;;;11.40;99.90;;;;;;5072190;28;20214;-79
2021/03/20 07:46:40;;;;;;;30.20;21.60;;;10.90;99.90;;;;;;5074492;28;20180;-78
2021/03/20 07:49:23;;;;;;;32.27;20.73;;;10.50;99.90;;;;;;5082309;28;20181;-79
2021/03/20 07:52:04;;;;;;;31.03;20.77;;;10.60;99.90;;;;;;5087122;28;20652;-78
2021/03/20 07:54:30;;;;;;;33.53;20.83;;;10.60;99.90;;;;;;5088886;28;20188;-79
2021/03/20 07:57:09;;;;;;;32.23;22.20;;;10.20;99.90;;;;;;5089335;28;20651;-79
2021/03/20 07:59:43;;;;;;;33.97;22.47;;;9.90;99.90;;;;;;5085161;28;20299;-78
2021/03/20 08:02:25;;;;;;;33.27;22.67;;;9.70;99.90;;;;;;5087738;28;20224;-79
2021/03/20 08:05:07;;;;;;;32.73;22.20;;;9.70;99.90;;;;;;5085024;28;20169;-78
2021/03/20 08:07:35;;;;;;;34.60;22.90;;;9.70;99.90;;;;;;5092398;28;20189;-78
2021/03/20 08:10:11;;;;;;;33.17;22.70;;;9.80;99.90;;;;;;5086157;28;20176;-78
2021/03/20 08:12:57;;;;;;;29.60;21.30;;;10.00;99.90;;;;;;5087806;28;20186;-78
2021/03/20 08:15:28;;;;;;;31.10;21.33;;;10.50;99.90;;;;;;5086060;28;20179;-78
2021/03/20 08:17:56;;;;;;;26.97;20.37;;;12.70;99.90;;;;;;5083176;28;20568;-78
2021/03/20 08:20:22;;;;;;;25.07;18.57;;;14.40;99.90;;;;;;5083454;28;20188;-78
2021/03/20 08:23:46;;;;;;;27.53;19.07;;;15.00;99.90;;;;;;5070737;28;20200;-78
2021/03/20 08:26:27;;;;;;;26.90;19.47;;;15.30;99.90;;;;;;5072461;28;20192;-78
2021/03/20 08:28:59;;;;;;;28.47;18.93;;;16.50;99.90;;;;;;5070790;28;20184;-79
2021/03/20 08:31:50;;;;;;;25.80;18.70;;;17.40;99.90;;;;;;5086747;28;20177;-80
2021/03/20 08:34:34;;;;;;;23.53;18.47;;;17.90;99.00;;;;;;5084664;28;20588;-78
2021/03/20 08:37:22;;;;;;;25.70;19.47;;;17.90;97.20;;;;;;5087173;28;20216;-79
2021/03/20 08:40:09;;;;;;;23.23;17.60;;;18.60;95.10;;;;;;5092336;28;20187;-79
2021/03/20 08:42:57;;;;;;;24.60;18.67;;;19.10;92.80;;;;;;5099802;27;20183;-80
2021/03/20 08:45:32;;;;;;;23.60;18.03;;;18.60;92.00;;;;;;5066543;28;20222;-77
2021/03/20 08:48:16;;;;;;;23.17;18.10;;;19.00;91.10;;;;;;5086389;28;20254;-80
2021/03/20 08:51:05;;;;;;;23.73;18.50;;;18.50;90.50;;;;;;5083463;28;20575;-78
2021/03/20 08:53:49;;;;;;;23.77;18.77;;;19.20;90.40;;;;;;5087869;28;20266;-78
2021/03/20 08:56:30;;;;;;;24.53;19.43;;;19.70;86.90;;;;;;5080795;28;20190;-78
2021/03/20 08:59:04;;;;;;;27.63;19.97;;;18.70;86.40;;;;;;5091994;28;20197;-78
2021/03/20 09:01:40;;;;;;;25.20;20.50;;;18.80;86.00;;;;;;5084266;28;20195;-78
2021/03/20 09:04:13;;;;;;;29.03;20.73;;;18.20;86.70;;;;;;5074773;28;20212;-78
2021/03/20 09:06:44;;;;;;;27.43;20.50;;;16.80;88.60;;;;;;5093741;28;20198;-79
2021/03/20 09:09:45;;;;;;;27.80;21.10;;;15.60;91.30;;;;;;5107138;27;20175;-78
2021/03/20 09:12:35;;;;;;;27.77;19.93;;;14.50;93.60;;;;;;5070410;28;20246;-78
2021/03/20 09:15:14;;;;;;;26.50;20.70;;;13.90;94.80;;;;;;5088990;28;20225;-80
2021/03/20 09:17:41;;;;;;;29.37;20.83;;;13.20;96.60;;;;;;5083931;28;20305;-79
2021/03/20 09:20:28;;;;;;;29.43;20.20;;;12.70;98.10;;;;;;5086700;28;20187;-79
2021/03/20 09:22:56;;;;;;;28.70;20.93;;;12.60;98.60;;;;;;5068423;28;20580;-79
2021/03/20 09:25:35;;;;;;;28.07;19.77;;;12.50;99.90;;;;;;5073380;28;20177;-79
2021/03/20 09:28:17;;;;;;;29.43;21.30;;;12.60;99.90;;;;;;5084232;28;20192;-79
2021/03/20 09:30:45;;;;;;;30.07;20.40;;;12.60;99.90;;;;;;5083172;28;21635;-79
2021/03/20 09:33:34;;;;;;;29.27;20.87;;;12.30;99.90;;;;;;5086439;28;20702;-79
2021/03/20 09:36:07;;;;;;;32.37;19.63;;;12.30;99.90;;;;;;5089848;28;20183;-78
2021/03/20 09:38:36;;;;;;;28.57;19.13;;;12.10;99.90;;;;;;5090102;28;20241;-79
2021/03/20 09:41:06;;;;;;;26.60;19.63;;;12.30;99.90;;;;;;5086035;28;20188;-79
2021/03/20 09:43:48;;;;;;;27.00;18.10;;;12.70;99.90;;;;;;5070504;28;20222;-79
2021/03/20 09:46:32;;;;;;;28.03;17.43;;;12.80;99.90;;;;;;5087855;28;20178;-79
2021/03/20 09:48:57;;;;;;;24.83;16.20;;;12.70;99.90;;;;;;5080433;28;20233;-79
2021/03/20 09:51:45;;;;;;;22.67;16.67;;;12.50;99.90;;;;;;5087403;28;20180;-79
2021/03/20 09:54:42;;;;;;;19.67;13.50;;;12.40;99.90;;;;;;5086727;28;20675;-77
2021/03/20 09:57:16;;;;;;;17.27;12.47;;;11.80;99.90;;;;;;5078672;28;20302;-77
2021/03/20 09:59:42;;;;;;;18.13;12.73;;;11.80;99.90;;;;;;5085096;28;20189;-78
2021/03/20 10:02:10;;;;;;;22.67;13.80;;;12.20;99.90;;;;;;5078504;28;20237;-78
2021/03/20 10:04:57;;;;;;;21.00;13.00;;;14.00;98.60;;;;;;5082161;28;20214;-78
2021/03/20 10:07:23;;;;;;;16.97;12.03;;;14.30;97.50;;;;;;5071250;28;20184;-79
2021/03/20 10:10:11;;;;;;;15.03;10.37;;;15.00;97.00;;;;;;5083700;28;20187;-78
2021/03/20 10:12:46;;;;;;;12.13;8.67;;;15.40;95.10;;;;;;5083875;28;20182;-78
2021/03/20 10:15:13;;;;;;;17.47;10.53;;;16.20;90.60;;;;;;5070112;28;20186;-78
2021/03/20 10:18:00;;;;;;;14.63;9.77;;;16.00;91.10;;;;;;5082693;28;20207;-78
2021/03/20 10:20:40;;;;;;;13.67;9.13;;;16.60;90.40;;;;;;5088373;28;20198;-78
2021/03/20 10:23:40;;;;;;;13.23;8.60;;;16.70;87.90;;;;;;5085547;28;20667;-78
2021/03/20 10:26:28;;;;;;;12.93;8.60;;;17.10;85.70;;;;;;5082128;28;20275;-79
2021/03/20 10:29:03;;;;;;;12.37;8.37;;;16.80;84.60;;;;;;5079339;28;20203;-79
2021/03/20 10:31:31;;;;;;;11.90;7.53;;;17.40;83.10;;;;;;5084349;28;20297;-79
2021/03/20 10:34:08;;;;;;;12.30;7.77;;;17.40;77.60;;;;;;5084661;28;20335;-79
2021/03/20 10:36:43;;;;;;;13.27;8.77;;;17.90;78.50;;;;;;5082314;28;20257;-80
2021/03/20 10:39:31;;;;;;;14.83;8.93;;;17.90;79.00;;;;;;5066292;28;20229;-80
2021/03/20 10:42:02;;;;;;;12.53;8.10;;;18.20;76.90;;;;;;5059551;28;20194;-82
2021/03/20 10:44:50;;;;;;;12.97;8.47;;;17.50;73.90;;;;;;5068166;28;20232;-79
2021/03/20 10:47:31;;;;;;;13.47;8.47;;;15.80;78.60;;;;;;5081966;28;20248;-79
2021/03/20 10:50:18;;;;;;;11.50;8.00;;;15.30;79.70;;;;;;5076777;28;20658;-79
2021/03/20 10:52:45;;;;;;;14.10;8.40;;;15.80;80.70;;;;;;5082491;28;20211;-79
2021/03/20 10:55:31;;;;;;;13.17;7.90;;;16.10;79.80;;;;;;5063693;28;20177;-79
2021/03/20 10:57:57;;;;;;;13.13;8.07;;;16.40;82.20;;;;;;5087527;28;20186;-80
2021/03/20 11:00:47;;;;;;;14.47;8.13;;;15.70;76.40;;;;;;5084809;28;20179;-79
2021/03/20 11:03:13;;;;;;;12.43;7.80;;;15.40;81.40;;;;;;5079810;28;20206;-80
2021/03/20 11:05:41;;;;;;;12.53;8.33;;;15.10;80.00;;;;;;5067365;28;20177;-79
2021/03/20 11:08:18;;;;;;;13.23;7.77;;;14.60;82.80;;;;;;5084728;28;20194;-79
2021/03/20 11:10:48;;;;;;;12.20;7.13;;;14.80;84.80;;;;;;5085519;28;20175;-78
2021/03/20 11:13:33;;;;;;;12.63;7.93;;;14.30;82.70;;;;;;5080260;28;20191;-80
2021/03/20 11:16:16;;;;;;;12.97;7.47;;;14.10;83.50;;;;;;5085209;28;20233;-79
2021/03/20 11:19:02;;;;;;;12.13;7.47;;;14.30;82.20;;;;;;5082216;28;20188;-80
2021/03/20 11:21:37;;;;;;;15.27;8.00;;;13.80;84.40;;;;;;5082380;28;20262;-78
2021/03/20 11:24:15;;;;;;;15.07;8.93;;;13.60;87.10;;;;;;5079137;28;20200;-78
2021/03/20 11:26:47;;;;;;;14.60;7.50;;;13.20;86.90;;;;;;5071190;28;20250;-78
2021/03/20 11:29:28;;;;;;;13.53;8.43;;;13.70;87.90;;;;;;5088848;28;20255;-79
2021/03/20 11:32:03;;;;;;;12.97;7.40;;;14.10;84.40;;;;;;5081947;28;20243;-79
2021/03/20 11:34:38;;;;;;;15.43;8.37;;;13.90;80.60;;;;;;5065303;28;20287;-78
2021/03/20 11:37:08;;;;;;;13.93;7.67;;;13.40;87.50;;;;;;5069483;28;20287;-79
2021/03/20 11:39:35;;;;;;;12.40;7.73;;;13.50;86.70;;;;;;5085858;28;20229;-79
2021/03/20 11:42:08;;;;;;;12.13;7.17;;;14.10;83.60;;;;;;5082912;28;20230;-79
2021/03/20 11:44:42;;;;;;;11.07;6.33;;;14.20;83.20;;;;;;5083480;28;20233;-79
2021/03/20 11:47:21;;;;;;;9.27;6.03;;;13.80;82.60;;;;;;5078688;28;20260;-78
2021/03/20 11:49:50;;;;;;;11.43;6.17;;;13.20;81.20;;;;;;5083470;28;20188;-78
2021/03/20 11:52:23;;;;;;;11.47;6.57;;;12.70;82.50;;;;;;5067749;28;20208;-78
2021/03/20 11:54:59;;;;;;;8.83;5.80;;;13.00;83.60;;;;;;5080608;28;20176;-80
2021/03/20 11:57:32;;;;;;;10.73;5.93;;;13.20;80.60;;;;;;5081576;28;20664;-78
2021/03/20 11:59:59;;;;;;;10.23;6.10;;;13.40;79.80;;;;;;5078202;28;20667;-78
2021/03/20 12:02:24;;;;;;;10.73;5.93;;;13.50;80.00;;;;;;5070668;28;20302;-79
2021/03/20 12:05:33;;;;;;;10.23;5.70;;;13.20;78.00;;;;;;5082043;28;20683;-78
2021/03/20 12:08:19;;;;;;;9.73;5.20;;;13.40;80.80;;;;;;5047289;28;20213;-78
2021/03/20 12:11:00;;;;;;;9.90;5.40;;;14.00;78.70;;;;;;5036578;28;20194;-78
2021/03/20 12:13:56;;;;;;;8.00;4.80;;;14.10;77.60;;;;;;5065715;28;20610;-78
2021/03/20 12:16:32;;;;;;;10.07;5.50;;;14.50;78.30;;;;;;5081244;28;20654;-79
2021/03/20 12:19:19;;;;;;;10.47;5.80;;;14.80;75.80;;;;;;5085592;28;20248;-79
2021/03/20 12:22:07;;;;;;;12.30;6.67;;;15.00;76.90;;;;;;5080550;28;20572;-79
2021/03/20 12:24:51;;;;;;;11.80;7.00;;;15.50;78.70;;;;;;5071158;28;20203;-78
2021/03/20 12:27:33;;;;;;;14.90;9.60;;;16.40;74.70;;;;;;5076023;28;20267;-80
2021/03/20 12:30:00;;;;;;;10.10;5.83;;;16.40;72.80;;;;;;5080472;28;20723;-80
2021/03/20 12:32:40;;;;;;;11.20;5.73;;;17.30;69.70;;;;;;5084241;28;20209;-79
2021/03/20 12:35:18;;;;;;;8.43;5.10;;;17.60;71.20;;;;;;5081139;28;20634;-77
2021/03/20 12:37:44;;;;;;;8.10;4.73;;;18.60;67.90;;;;;;5090054;28;20268;-78
2021/03/20 12:40:11;;;;;;;9.73;5.47;;;18.60;68.30;;;;;;5087247;28;20183;-78
2021/03/20 12:42:37;;;;;;;9.17;4.77;;;18.30;67.80;;;;;;5073562;28;20187;-78
2021/03/20 12:45:05;;;;;;;8.40;4.63;;;18.40;66.00;;;;;;5088318;28;20269;-80
2021/03/20 12:47:31;;;;;;;8.83;4.30;;;18.80;65.40;;;;;;5090233;28;20168;-79
2021/03/20 12:49:57;;;;;;;8.63;4.97;;;19.70;60.60;;;;;;5070024;28;20292;-80
2021/03/20 12:52:24;;;;;;;6.83;4.17;;;20.40;58.10;;;;;;5067106;28;20230;-79
2021/03/20 12:54:55;;;;;;;6.57;3.87;;;20.80;58.50;;;;;;5086338;28;20653;-80
2021/03/20 12:57:28;;;;;;;6.70;3.90;;;19.80;57.70;;;;;;5085085;28;20193;-80
2021/03/20 12:59:54;;;;;;;8.47;4.20;;;18.70;58.60;;;;;;5068380;28;20177;-79
2021/03/20 13:02:21;;;;;;;7.63;4.40;;;17.30;61.00;;;;;;5080713;28;20552;-79
2021/03/20 13:04:49;;;;;;;8.03;4.50;;;16.10;63.90;;;;;;5089561;28;20715;-79
2021/03/20 13:07:16;;;;;;;7.17;4.10;;;15.60;64.80;;;;;;5091611;28;20179;-80
2021/03/20 13:09:42;;;;;;;9.37;4.17;;;15.30;65.00;;;;;;5094255;28;20697;-79
2021/03/20 13:12:10;;;;;;;9.17;4.37;;;15.10;66.50;;;;;;5087798;28;20194;-80
2021/03/20 13:14:36;;;;;;;7.33;4.17;;;14.90;64.80;;;;;;5092233;28;20269;-81
2021/03/20 13:17:03;;;;;;;8.00;4.13;;;14.70;63.90;;;;;;5084612;28;20183;-80
2021/03/20 13:19:30;;;;;;;7.20;4.07;;;14.30;64.50;;;;;;5091989;28;20539;-81